createdAt,value
2022-08-19T00:01:52.809Z,62.20
2022-08-19T00:04:37.573Z,62.40
2022-08-19T00:07:17.799Z,62.40
2022-08-19T00:10:04.289Z,62.50
2022-08-19T00:12:51.677Z,62.50
2022-08-19T00:15:31.285Z,62.60
2022-08-19T00:18:18.363Z,62.60
2022-08-19T00:20:58.286Z,62.60
2022-08-19T00:23:47.920Z,62.60
2022-08-19T00:26:28.352Z,62.60
2022-08-19T00:29:18.302Z,62.70
2022-08-19T00:32:00.712Z,62.70
2022-08-19T00:34:47.293Z,62.80
2022-08-19T00:37:29.370Z,62.80
2022-08-19T00:40:18.289Z,62.90
2022-08-19T00:43:05.305Z,63.00
2022-08-19T00:45:45.789Z,63.10
2022-08-19T00:48:34.301Z,63.00
2022-08-19T00:51:21.335Z,63.10
2022-08-19T00:54:04.408Z,63.40
2022-08-19T00:56:52.308Z,63.20
2022-08-19T00:59:56.389Z,63.20
2022-08-19T01:02:50.366Z,63.30
2022-08-19T01:05:37.299Z,63.30
2022-08-19T01:08:19.574Z,63.20
2022-08-19T01:11:13.317Z,63.30
2022-08-19T01:13:54.596Z,63.30
2022-08-19T01:16:44.309Z,64.30
2022-08-19T01:19:43.825Z,64.00
2022-08-19T01:22:33.990Z,63.70
2022-08-19T01:25:30.321Z,63.40
2022-08-19T01:28:42.452Z,63.40
2022-08-19T01:31:41.306Z,63.40
2022-08-19T01:34:28.315Z,63.60
2022-08-19T01:37:25.443Z,63.60
2022-08-19T01:40:09.418Z,63.50
2022-08-19T01:42:56.328Z,63.70
2022-08-19T01:45:38.467Z,63.70
2022-08-19T01:48:25.326Z,63.70
2022-08-19T01:51:06.748Z,63.70
2022-08-19T01:53:55.318Z,63.80
2022-08-19T01:56:36.326Z,63.50
2022-08-19T01:59:29.302Z,63.40
2022-08-19T02:02:16.417Z,63.20
2022-08-19T02:05:03.299Z,63.20
2022-08-19T02:07:45.513Z,63.20
2022-08-19T02:10:32.325Z,64.20
2022-08-19T02:13:12.403Z,63.20
2022-08-19T02:15:59.317Z,63.20
2022-08-19T02:18:39.353Z,63.20
2022-08-19T02:21:28.321Z,63.10
2022-08-19T02:24:08.358Z,63.10
2022-08-19T02:26:55.322Z,64.00
2022-08-19T02:29:42.370Z,63.00
2022-08-19T02:32:23.313Z,63.00
2022-08-19T02:35:12.358Z,63.80
2022-08-19T02:38:11.313Z,62.90
2022-08-19T02:41:02.905Z,62.90
2022-08-19T02:44:18.398Z,62.80
2022-08-19T02:46:53.413Z,62.70
2022-08-19T02:49:34.714Z,62.90
2022-08-19T02:52:21.454Z,63.00
2022-08-19T02:55:05.318Z,63.00
2022-08-19T02:57:52.320Z,63.20
2022-08-19T03:00:33.296Z,63.20
2022-08-19T03:03:21.329Z,63.30
2022-08-19T03:06:13.594Z,63.30
2022-08-19T03:09:01.322Z,63.30
2022-08-19T03:11:41.361Z,63.30
2022-08-19T03:14:28.329Z,63.20
2022-08-19T03:17:09.360Z,63.20
2022-08-19T03:19:56.331Z,63.20
2022-08-19T03:22:36.386Z,63.10
2022-08-19T03:25:24.330Z,63.20
2022-08-19T03:28:11.393Z,63.10
2022-08-19T03:31:06.320Z,63.00
2022-08-19T03:34:13.419Z,62.90
2022-08-19T03:36:55.364Z,62.80
2022-08-19T03:39:45.377Z,62.70
2022-08-19T03:42:38.407Z,62.70
2022-08-19T03:45:35.334Z,62.60
2022-08-19T03:48:16.362Z,62.60
2022-08-19T03:51:03.330Z,62.50
2022-08-19T03:53:50.330Z,62.70
2022-08-19T03:56:38.325Z,62.60
2022-08-19T03:59:23.301Z,62.60
2022-08-19T04:02:18.318Z,62.60
2022-08-19T04:05:01.394Z,62.60
2022-08-19T04:07:48.317Z,62.60
2022-08-19T04:10:36.350Z,62.60
2022-08-19T04:13:18.982Z,62.60
2022-08-19T04:16:05.320Z,62.50
2022-08-19T04:18:52.393Z,62.50
2022-08-19T04:21:34.325Z,62.40
2022-08-19T04:24:22.336Z,62.30
2022-08-19T04:27:02.975Z,62.20
2022-08-19T04:29:49.314Z,62.30
2022-08-19T04:32:29.378Z,62.40
2022-08-19T04:35:19.320Z,62.40
2022-08-19T04:38:00.397Z,62.40
2022-08-19T04:41:11.325Z,62.50
2022-08-19T04:43:52.402Z,62.50
2022-08-19T04:46:50.993Z,62.40
2022-08-19T04:49:31.482Z,62.40
2022-08-19T04:52:18.331Z,62.30
2022-08-19T04:54:58.417Z,62.40
2022-08-19T04:57:47.328Z,62.40
2022-08-19T05:00:27.383Z,62.50
2022-08-19T05:03:14.356Z,62.40
2022-08-19T05:05:55.521Z,62.70
2022-08-19T05:08:43.321Z,63.50
2022-08-19T05:11:33.385Z,62.60
2022-08-19T05:14:20.342Z,62.70
2022-08-19T05:17:24.000Z,62.90
2022-08-19T05:20:26.355Z,62.90
2022-08-19T05:23:13.339Z,62.80
2022-08-19T05:26:09.331Z,62.80
2022-08-19T05:28:56.414Z,63.00
2022-08-19T05:31:37.341Z,63.00
2022-08-19T05:34:30.824Z,63.00
2022-08-19T05:37:12.353Z,63.00
2022-08-19T05:39:59.443Z,63.00
2022-08-19T05:42:39.361Z,63.00
2022-08-19T05:45:19.908Z,62.90
2022-08-19T05:48:06.361Z,63.30
2022-08-19T05:50:47.652Z,63.60
2022-08-19T05:53:34.342Z,63.60
2022-08-19T05:56:25.617Z,63.50
2022-08-19T05:59:06.351Z,63.50
2022-08-19T06:01:52.718Z,63.30
2022-08-19T06:04:39.354Z,63.20
2022-08-19T06:07:26.546Z,63.00
2022-08-19T06:10:06.363Z,62.80
2022-08-19T06:12:53.398Z,62.80
2022-08-19T06:15:35.349Z,62.90
2022-08-19T06:18:23.341Z,62.80
2022-08-19T06:21:25.350Z,62.80
2022-08-19T06:24:14.345Z,62.50
2022-08-19T06:26:59.198Z,62.30
2022-08-19T06:29:49.352Z,62.10
2022-08-19T06:32:29.761Z,61.80
2022-08-19T06:35:16.354Z,61.70
2022-08-19T06:37:56.528Z,61.60
2022-08-19T06:40:45.363Z,61.60
2022-08-19T06:43:28.136Z,61.40
2022-08-19T06:46:21.345Z,60.80
2022-08-19T06:49:08.354Z,60.60
2022-08-19T06:51:58.686Z,60.30
2022-08-19T06:54:55.441Z,60.30
2022-08-19T06:57:36.905Z,60.30
2022-08-19T07:00:24.412Z,60.30
2022-08-19T07:03:13.283Z,60.30
2022-08-19T07:05:53.736Z,60.20
2022-08-19T07:08:41.372Z,60.60
2022-08-19T07:11:24.398Z,60.60
2022-08-19T07:14:18.956Z,60.60
2022-08-19T07:17:01.402Z,60.50
2022-08-19T07:19:50.376Z,60.30
2022-08-19T07:22:30.400Z,60.20
2022-08-19T07:25:17.346Z,60.20
2022-08-19T07:28:14.362Z,60.20
2022-08-19T07:31:11.349Z,60.20
2022-08-19T07:33:53.316Z,60.30
2022-08-19T07:36:44.352Z,60.30
2022-08-19T07:39:35.412Z,60.30
2022-08-19T07:42:22.440Z,60.00
2022-08-19T07:45:02.370Z,59.80
2022-08-19T07:47:49.333Z,59.60
2022-08-19T07:50:37.345Z,59.50
2022-08-19T07:53:24.379Z,59.20
2022-08-19T07:56:05.102Z,59.10
2022-08-19T07:58:53.459Z,58.90
2022-08-19T08:01:42.429Z,58.70
2022-08-19T08:04:41.568Z,58.60
2022-08-19T08:07:47.375Z,58.40
2022-08-19T08:10:27.866Z,58.40
2022-08-19T08:13:14.452Z,58.30
2022-08-19T08:16:01.382Z,58.10
2022-08-19T08:18:50.803Z,57.80
2022-08-19T08:24:28.549Z,57.50
2022-08-19T08:27:15.382Z,57.20
2022-08-19T08:30:10.040Z,57.10
2022-08-19T08:32:50.384Z,57.20
2022-08-19T08:35:30.936Z,57.30
2022-08-19T08:38:18.397Z,57.20
2022-08-19T08:41:14.277Z,57.20
2022-08-19T08:43:59.411Z,57.00
2022-08-19T08:47:03.387Z,56.60
2022-08-19T08:49:59.380Z,57.00
2022-08-19T08:52:52.216Z,55.30
2022-08-19T08:55:42.365Z,54.80
2022-08-19T08:58:43.114Z,54.50
2022-08-19T09:01:30.494Z,54.00
2022-08-19T09:04:20.488Z,53.70
2022-08-19T09:07:26.198Z,53.70
2022-08-19T09:10:27.436Z,53.60
2022-08-19T09:13:24.373Z,53.20
2022-08-19T09:16:16.366Z,52.50
2022-08-19T09:19:07.384Z,51.70
2022-08-19T09:21:55.504Z,51.60
2022-08-19T09:24:36.397Z,50.10
2022-08-19T09:27:41.979Z,50.00
2022-08-19T09:30:35.390Z,50.00
2022-08-19T09:33:23.406Z,50.20
2022-08-19T09:36:23.448Z,50.80
2022-08-19T09:39:16.425Z,50.80
2022-08-19T09:42:03.370Z,50.20
2022-08-19T09:44:52.473Z,50.00
2022-08-19T09:47:32.370Z,49.30
2022-08-19T09:50:20.555Z,48.70
2022-08-19T09:53:01.376Z,47.70
2022-08-19T09:55:45.302Z,46.80
2022-08-19T09:58:35.380Z,46.90
2022-08-19T10:01:28.405Z,47.70
2022-08-19T10:04:20.536Z,45.80
2022-08-19T10:07:09.386Z,45.60
2022-08-19T10:09:49.453Z,46.20
2022-08-19T10:12:36.389Z,46.30
2022-08-19T10:15:28.760Z,46.20
2022-08-19T10:18:17.395Z,45.60
2022-08-19T10:20:58.432Z,45.40
2022-08-19T10:23:47.401Z,45.20
2022-08-19T10:26:30.466Z,45.60
2022-08-19T10:29:32.832Z,46.10
2022-08-19T10:32:16.509Z,46.10
2022-08-19T10:35:06.036Z,46.00
2022-08-19T10:37:57.462Z,45.60
2022-08-19T10:40:41.006Z,45.30
2022-08-19T10:43:27.404Z,45.40
2022-08-19T10:46:16.573Z,45.50
2022-08-19T10:48:56.952Z,45.30
2022-08-19T10:52:02.396Z,44.90
2022-08-19T10:55:08.910Z,44.70
2022-08-19T10:58:02.974Z,44.30
2022-08-19T11:00:44.425Z,43.80
2022-08-19T11:03:31.400Z,43.20
2022-08-19T11:06:18.474Z,43.40
2022-08-19T11:09:00.419Z,43.80
2022-08-19T11:11:48.488Z,44.00
2022-08-19T11:14:28.412Z,43.90
2022-08-19T11:17:14.498Z,43.80
2022-08-19T11:20:01.405Z,43.40
2022-08-19T11:22:43.198Z,43.20
2022-08-19T11:25:29.397Z,43.90
2022-08-19T11:28:23.432Z,42.80
2022-08-19T11:31:10.408Z,43.60
2022-08-19T11:33:53.387Z,42.50
2022-08-19T11:36:46.418Z,42.40
2022-08-19T11:39:28.465Z,42.20
2022-08-19T11:42:33.427Z,42.40
2022-08-19T11:45:15.111Z,42.50
2022-08-19T11:48:01.421Z,42.90
2022-08-19T11:50:50.406Z,43.40
2022-08-19T11:53:31.269Z,43.70
2022-08-19T11:56:20.427Z,44.10
2022-08-19T11:59:11.595Z,44.20
2022-08-19T12:01:54.496Z,44.50
2022-08-19T12:04:42.440Z,44.50
2022-08-19T12:07:29.426Z,44.60
2022-08-19T12:10:26.301Z,44.50
2022-08-19T12:13:16.439Z,44.50
2022-08-19T12:15:56.487Z,44.70
2022-08-19T12:18:43.454Z,45.10
2022-08-19T12:21:29.223Z,45.40
2022-08-19T12:24:15.428Z,45.70
2022-08-19T12:27:00.954Z,46.00
2022-08-19T12:29:56.436Z,46.30
2022-08-19T12:32:43.542Z,46.50
2022-08-19T12:35:23.437Z,46.70
2022-08-19T12:38:10.487Z,46.90
2022-08-19T12:41:00.072Z,47.10
2022-08-19T12:43:42.127Z,47.40
2022-08-19T12:46:28.445Z,47.80
2022-08-19T12:49:30.423Z,48.10
2022-08-19T12:52:16.466Z,48.30
2022-08-19T12:55:06.530Z,48.50
2022-08-19T12:57:46.455Z,48.70
2022-08-19T13:00:33.772Z,49.80
2022-08-19T13:03:13.437Z,49.00
2022-08-19T13:05:53.942Z,49.10
2022-08-19T13:08:40.458Z,49.20
2022-08-19T13:11:25.196Z,49.20
2022-08-19T13:14:11.484Z,49.10
2022-08-19T13:16:51.945Z,49.10
2022-08-19T13:19:39.453Z,49.10
2022-08-19T13:22:26.444Z,49.30
2022-08-19T13:25:06.517Z,49.40
2022-08-19T13:27:54.534Z,49.60
2022-08-19T13:30:53.114Z,49.70
2022-08-19T13:33:41.448Z,49.90
2022-08-19T13:36:28.434Z,49.90
2022-08-19T13:39:16.645Z,50.10
2022-08-19T13:41:57.438Z,50.40
2022-08-19T13:44:38.015Z,50.60
2022-08-19T13:47:24.446Z,50.80
2022-08-19T13:50:05.757Z,50.90
2022-08-19T13:52:53.495Z,51.00
2022-08-19T13:55:40.577Z,51.40
2022-08-19T13:58:21.462Z,51.60
2022-08-19T14:01:08.505Z,51.80
2022-08-19T14:03:55.476Z,51.90
2022-08-19T14:06:42.569Z,52.00
2022-08-19T14:09:22.506Z,52.10
2022-08-19T14:12:09.474Z,52.10
2022-08-19T14:14:49.538Z,52.30
2022-08-19T14:17:36.485Z,52.20
2022-08-19T14:20:18.789Z,52.20
2022-08-19T14:23:06.478Z,52.30
2022-08-19T14:25:47.457Z,52.30
2022-08-19T14:28:35.442Z,52.40
2022-08-19T14:31:28.996Z,52.40
2022-08-19T14:34:10.451Z,52.50
2022-08-19T14:36:57.540Z,52.50
2022-08-19T14:39:37.478Z,52.50
2022-08-19T14:42:24.473Z,52.50
2022-08-19T14:45:08.522Z,52.70
2022-08-19T14:47:55.614Z,52.70
2022-08-19T14:50:37.661Z,52.70
2022-08-19T14:53:31.475Z,53.10
2022-08-19T14:56:21.538Z,52.80
2022-08-19T14:59:02.470Z,52.80
2022-08-19T15:01:43.180Z,52.80
2022-08-19T15:04:33.782Z,53.80
2022-08-19T15:07:21.834Z,52.80
2022-08-19T15:10:01.996Z,52.90
2022-08-19T15:12:51.884Z,52.80
2022-08-19T15:15:31.577Z,52.80
2022-08-19T15:18:19.468Z,52.80
2022-08-19T15:21:06.488Z,52.80
2022-08-19T15:23:55.493Z,52.80
2022-08-19T15:26:35.528Z,53.00
2022-08-19T15:29:23.522Z,53.00
2022-08-19T15:32:03.532Z,53.00
2022-08-19T15:34:50.500Z,53.20
2022-08-19T15:37:30.558Z,53.30
2022-08-19T15:40:18.529Z,53.40
2022-08-19T15:42:59.539Z,53.40
2022-08-19T15:45:49.385Z,53.50
2022-08-19T15:48:29.657Z,53.60
2022-08-19T15:51:16.756Z,53.70
2022-08-19T15:53:57.657Z,53.70
2022-08-19T15:57:04.791Z,53.80
2022-08-19T16:00:04.502Z,53.90
2022-08-19T16:03:10.465Z,53.90
2022-08-19T16:06:16.473Z,54.10
2022-08-19T16:09:00.021Z,54.10
2022-08-19T16:11:56.580Z,54.20
2022-08-19T16:14:44.488Z,54.30
2022-08-19T16:17:31.494Z,54.50
2022-08-19T16:20:12.109Z,54.50
2022-08-19T16:22:59.505Z,54.50
2022-08-19T16:25:40.025Z,54.50
2022-08-19T16:28:26.493Z,54.50
2022-08-19T16:31:20.495Z,54.50
2022-08-19T16:34:07.639Z,54.60
2022-08-19T16:36:48.483Z,54.70
2022-08-19T16:39:35.583Z,54.70
2022-08-19T16:42:18.495Z,54.90
2022-08-19T16:45:05.482Z,55.90
2022-08-19T16:47:45.560Z,54.90
2022-08-19T16:50:48.819Z,54.70
2022-08-19T16:53:32.119Z,54.90
2022-08-19T16:56:19.743Z,55.20
2022-08-19T16:59:02.635Z,55.30
2022-08-19T17:01:50.535Z,55.50
2022-08-19T17:04:30.576Z,55.80
2022-08-19T17:07:17.501Z,55.90
2022-08-19T17:09:57.717Z,56.10
2022-08-19T17:12:44.481Z,56.50
2022-08-19T17:15:24.753Z,57.30
2022-08-19T17:18:14.502Z,56.30
2022-08-19T17:20:56.884Z,56.80
2022-08-19T17:23:44.202Z,56.60
2022-08-19T17:26:25.328Z,56.50
2022-08-19T17:29:18.490Z,57.00
2022-08-19T17:32:06.166Z,57.40
2022-08-19T17:34:45.499Z,57.70
2022-08-19T17:37:32.486Z,57.30
2022-08-19T17:40:15.610Z,57.50
2022-08-19T17:43:08.501Z,57.80
2022-08-19T17:45:49.610Z,57.70
2022-08-19T17:48:38.494Z,57.90
2022-08-19T17:51:43.590Z,58.00
2022-08-19T17:54:31.907Z,57.80
2022-08-19T17:57:14.087Z,57.70
2022-08-19T18:00:00.503Z,57.60
2022-08-19T18:03:04.687Z,57.50
2022-08-19T18:05:51.501Z,58.50
2022-08-19T18:08:38.502Z,57.70
2022-08-19T18:11:19.233Z,57.70
2022-08-19T18:14:05.499Z,58.90
2022-08-19T18:16:53.501Z,58.00
2022-08-19T18:19:41.266Z,59.20
2022-08-19T18:22:43.546Z,58.20
2022-08-19T18:25:32.506Z,58.40
2022-08-19T18:28:19.526Z,59.30
2022-08-19T18:31:06.643Z,58.20
2022-08-19T18:33:46.502Z,58.00
2022-08-19T18:36:52.899Z,58.10
2022-08-19T18:39:52.604Z,58.20
2022-08-19T18:42:58.152Z,58.10
2022-08-19T18:45:56.505Z,58.20
2022-08-19T18:48:57.006Z,58.20
2022-08-19T18:51:43.500Z,58.50
2022-08-19T18:54:32.527Z,58.30
2022-08-19T18:57:13.518Z,58.50
2022-08-19T18:59:56.512Z,58.60
2022-08-19T19:02:50.522Z,58.70
2022-08-19T19:05:31.024Z,58.70
2022-08-19T19:08:18.496Z,59.00
2022-08-19T19:11:11.517Z,59.00
2022-08-19T19:13:51.559Z,58.90
2022-08-19T19:16:39.508Z,59.00
2022-08-19T19:19:20.616Z,59.20
2022-08-19T19:22:11.514Z,59.30
2022-08-19T19:24:58.502Z,59.50
2022-08-19T19:27:40.309Z,59.40
2022-08-19T19:30:30.521Z,59.50
2022-08-19T19:33:17.855Z,59.50
2022-08-19T19:35:57.520Z,59.60
2022-08-19T19:38:38.077Z,59.70
2022-08-19T19:41:32.529Z,59.80
2022-08-19T19:44:30.487Z,59.80
2022-08-19T19:47:13.514Z,60.80
2022-08-19T19:50:17.834Z,60.00
2022-08-19T19:52:57.520Z,60.10
2022-08-19T19:55:44.585Z,60.00
2022-08-19T19:58:29.182Z,60.10
2022-08-19T20:01:21.662Z,60.10
2022-08-19T20:04:07.519Z,60.20
2022-08-19T20:06:54.544Z,60.30
2022-08-19T20:09:56.398Z,60.50
2022-08-19T20:12:41.521Z,60.50
2022-08-19T20:15:22.630Z,60.70
2022-08-19T20:18:11.511Z,60.70
2022-08-19T20:20:51.667Z,60.70
2022-08-19T20:23:38.531Z,60.70
2022-08-19T20:26:32.432Z,60.90
2022-08-19T20:29:39.448Z,60.90
2022-08-19T20:32:28.521Z,60.90
2022-08-19T20:35:08.612Z,60.90
2022-08-19T20:37:58.429Z,61.00
2022-08-19T20:40:45.693Z,61.10
2022-08-19T20:43:32.825Z,61.00
2022-08-19T20:46:12.920Z,61.10
2022-08-19T20:48:59.543Z,61.10
2022-08-19T20:51:39.706Z,61.10
2022-08-19T20:54:26.542Z,61.10
2022-08-19T20:57:06.570Z,61.10
2022-08-19T20:59:53.554Z,61.00
2022-08-19T21:02:40.532Z,61.10
2022-08-19T21:05:34.521Z,61.00
2022-08-19T21:08:18.228Z,61.10
2022-08-19T21:11:05.535Z,61.20
2022-08-19T21:14:06.343Z,61.20
2022-08-19T21:16:53.345Z,61.30
2022-08-19T21:19:33.416Z,61.50
2022-08-19T21:22:20.338Z,61.50
2022-08-19T21:25:00.413Z,61.60
2022-08-19T21:27:47.344Z,61.60
2022-08-19T21:30:27.385Z,61.80
2022-08-19T21:33:14.341Z,61.80
2022-08-19T21:35:56.472Z,61.80
2022-08-19T21:38:44.351Z,61.80
2022-08-19T21:41:24.390Z,61.90
2022-08-19T21:44:11.340Z,62.00
2022-08-19T21:46:51.404Z,61.90
2022-08-19T21:49:38.335Z,61.90
2022-08-19T21:52:25.434Z,62.10
2022-08-19T21:55:14.751Z,63.20
2022-08-19T21:57:54.617Z,62.30
2022-08-19T22:00:42.544Z,62.30
2022-08-19T22:03:25.340Z,62.40
2022-08-19T22:06:06.671Z,62.50
2022-08-19T22:08:54.346Z,62.50
2022-08-19T22:11:50.368Z,62.70
2022-08-19T22:14:44.361Z,62.60
2022-08-19T22:17:33.200Z,62.50
2022-08-19T22:20:17.364Z,62.60
2022-08-19T22:23:02.522Z,62.60
2022-08-19T22:25:54.362Z,62.70
2022-08-19T22:28:41.351Z,62.60
2022-08-19T22:31:21.478Z,62.60
2022-08-19T22:34:10.352Z,62.60
2022-08-19T22:36:57.369Z,62.70
2022-08-19T22:39:45.365Z,62.60
2022-08-19T22:42:32.399Z,62.60
2022-08-19T22:45:16.797Z,62.60
2022-08-19T22:48:03.341Z,62.50
2022-08-19T22:51:05.468Z,62.50
2022-08-19T22:53:55.354Z,62.60
2022-08-19T22:56:43.421Z,62.60
2022-08-19T22:59:23.368Z,62.60
2022-08-19T23:02:10.487Z,62.60
2022-08-19T23:04:50.379Z,62.70
2022-08-19T23:07:37.409Z,62.70
2022-08-19T23:10:26.541Z,62.70
2022-08-19T23:13:23.358Z,62.70
2022-08-19T23:16:10.368Z,62.70
2022-08-19T23:18:50.413Z,62.70
2022-08-19T23:21:42.337Z,62.70
2022-08-19T23:24:29.362Z,62.80
2022-08-19T23:27:35.076Z,62.80
2022-08-19T23:30:47.365Z,62.90
2022-08-19T23:33:46.785Z,62.60
2022-08-19T23:36:38.357Z,62.80
2022-08-19T23:39:19.269Z,62.80
2022-08-19T23:42:08.381Z,62.90
2022-08-19T23:44:55.418Z,63.00
2022-08-19T23:47:37.348Z,63.00
2022-08-19T23:50:30.356Z,63.00
2022-08-19T23:53:17.362Z,63.10
2022-08-19T23:56:05.374Z,64.00
2022-08-19T23:58:55.357Z,63.20
